createdAt,value
2022-10-19T14:51:18.482Z,17.25
2022-10-19T14:52:19.565Z,17.28
2022-10-19T14:53:19.445Z,17.30
2022-10-19T14:54:19.461Z,17.32
2022-10-19T14:55:19.431Z,17.34
2022-10-19T14:56:19.422Z,17.32
2022-10-19T14:57:19.405Z,17.32
2022-10-19T14:58:19.411Z,17.31
2022-10-19T14:59:19.391Z,17.34
2022-10-19T15:00:19.435Z,17.35
2022-10-19T15:01:19.458Z,17.35
2022-10-19T15:02:19.314Z,17.38
2022-10-19T15:03:19.297Z,17.41
2022-10-19T15:04:19.500Z,17.39
2022-10-19T15:05:19.285Z,17.45
2022-10-19T15:06:19.324Z,17.45
2022-10-19T15:07:19.259Z,17.46
2022-10-19T15:08:19.241Z,17.50
2022-10-19T15:09:30.281Z,17.53
2022-10-19T15:10:19.266Z,17.54
2022-10-19T15:11:19.242Z,17.56
2022-10-19T15:12:19.207Z,17.56
2022-10-19T15:13:19.173Z,17.57
2022-10-19T15:14:19.171Z,17.59
2022-10-19T15:15:19.140Z,17.62
2022-10-19T15:16:19.138Z,17.59
2022-10-19T15:17:20.962Z,17.56
2022-10-19T15:18:43.467Z,17.53
2022-10-19T15:19:19.160Z,17.49
2022-10-19T15:20:19.183Z,17.47
2022-10-19T15:21:19.155Z,17.46
2022-10-19T15:22:19.066Z,17.43
2022-10-19T15:23:19.047Z,17.41
2022-10-19T15:24:19.113Z,17.41
2022-10-19T15:25:19.017Z,17.39
2022-10-19T15:26:19.022Z,17.39
2022-10-19T15:27:19.017Z,17.38
2022-10-19T15:28:21.779Z,17.37
2022-10-19T15:29:19.212Z,17.32
2022-10-19T15:30:18.953Z,17.31
2022-10-19T15:31:19.012Z,17.24
2022-10-19T15:32:18.920Z,17.22
2022-10-19T15:33:18.956Z,17.16
2022-10-19T15:34:18.895Z,17.13
2022-10-19T15:35:19.396Z,17.12
2022-10-19T15:36:18.919Z,17.09
2022-10-19T15:37:18.876Z,17.04
2022-10-19T15:38:18.947Z,17.02
2022-10-19T15:39:33.060Z,16.99
2022-10-19T15:40:18.820Z,16.98
2022-10-19T15:41:18.811Z,16.94
2022-10-19T15:42:18.777Z,16.94
2022-10-19T15:43:18.763Z,16.91
2022-10-19T15:44:18.756Z,16.88
2022-10-19T15:45:18.729Z,16.88
2022-10-19T15:46:18.739Z,16.80
2022-10-19T15:47:18.711Z,16.77
2022-10-19T15:48:18.693Z,16.74
2022-10-19T15:49:18.666Z,16.69
2022-10-19T15:50:18.672Z,16.69
2022-10-19T15:51:21.742Z,16.67
2022-10-19T15:52:18.662Z,16.64
2022-10-19T15:53:18.638Z,16.62
2022-10-19T15:54:18.611Z,16.59
2022-10-19T15:55:18.597Z,16.57
2022-10-19T15:56:18.587Z,16.52
2022-10-19T15:57:18.593Z,16.47
2022-10-19T15:58:18.564Z,16.43
2022-10-19T15:59:18.544Z,16.37
2022-10-19T16:00:18.543Z,16.33
2022-10-19T16:01:18.561Z,16.29
2022-10-19T16:02:18.503Z,16.24
2022-10-19T16:03:18.496Z,16.17
2022-10-19T16:04:18.476Z,16.10
2022-10-19T16:05:18.484Z,16.06
2022-10-19T16:06:18.482Z,16.02
2022-10-19T16:07:18.419Z,15.98
2022-10-19T16:08:18.704Z,15.96
2022-10-19T16:09:18.391Z,15.91
2022-10-19T16:10:18.396Z,15.87
2022-10-19T16:11:18.378Z,15.83
2022-10-19T16:12:18.353Z,15.77
2022-10-19T16:13:18.481Z,15.77
2022-10-19T16:14:18.335Z,15.73
2022-10-19T16:15:18.364Z,15.69
2022-10-19T16:16:18.343Z,15.65
2022-10-19T16:17:18.293Z,15.58
2022-10-19T16:18:18.297Z,15.52
2022-10-19T16:19:18.270Z,15.48
2022-10-19T16:20:18.266Z,15.47
2022-10-19T16:21:18.268Z,15.44
2022-10-19T16:22:18.265Z,15.40
2022-10-19T16:23:18.267Z,15.35
2022-10-19T16:24:18.231Z,15.30
2022-10-19T16:25:18.180Z,15.23
2022-10-19T16:26:18.185Z,15.15
2022-10-19T16:27:18.149Z,15.12
2022-10-19T16:28:24.632Z,15.08
2022-10-19T16:29:18.113Z,15.05
2022-10-19T16:30:18.101Z,15.03
2022-10-19T16:31:18.107Z,14.99
2022-10-19T16:32:18.080Z,14.96
2022-10-19T16:33:18.058Z,14.92
2022-10-19T16:34:18.051Z,14.86
2022-10-19T16:35:18.034Z,14.82
2022-10-19T16:36:18.039Z,14.79
2022-10-19T16:37:17.998Z,14.77
2022-10-19T16:38:18.049Z,14.71
2022-10-19T16:39:17.990Z,14.67
2022-10-19T16:40:17.967Z,14.61
2022-10-19T16:41:17.975Z,14.53
2022-10-19T16:42:17.942Z,14.51
2022-10-19T16:43:17.920Z,14.45
2022-10-19T16:44:17.910Z,14.40
2022-10-19T16:45:17.896Z,14.41
2022-10-19T16:46:17.905Z,14.44
2022-10-19T16:47:17.874Z,14.45
2022-10-19T16:48:21.847Z,14.41
2022-10-19T16:49:17.854Z,14.40
2022-10-19T16:50:17.828Z,14.37
2022-10-19T16:51:17.826Z,14.34
2022-10-19T16:52:17.805Z,14.31
2022-10-19T16:53:17.785Z,14.30
2022-10-19T16:54:17.780Z,14.23
2022-10-19T16:55:17.813Z,14.21
2022-10-19T16:56:17.786Z,14.15
2022-10-19T16:57:17.735Z,14.12
2022-10-19T16:58:17.718Z,14.09
2022-10-19T16:59:17.711Z,14.04
2022-10-19T17:00:17.751Z,13.98
2022-10-19T17:01:17.792Z,13.94
2022-10-19T17:02:17.723Z,13.91
2022-10-19T17:03:17.735Z,13.88
2022-10-19T17:04:17.785Z,13.82
2022-10-19T17:05:17.677Z,13.80
2022-10-19T17:06:17.715Z,13.79
2022-10-19T17:07:17.648Z,13.80
2022-10-19T17:08:17.642Z,13.79
2022-10-19T17:10:17.752Z,13.80
2022-10-19T17:11:17.620Z,13.80
2022-10-19T17:12:17.594Z,13.82
2022-10-19T17:13:17.575Z,13.80
2022-10-19T17:14:17.565Z,13.79
2022-10-19T17:15:41.579Z,13.78
2022-10-19T17:16:17.556Z,13.78
2022-10-19T17:17:17.545Z,13.76
2022-10-19T17:19:17.494Z,13.78
2022-10-19T17:20:17.517Z,13.78
2022-10-19T17:21:17.495Z,13.80
2022-10-19T17:22:17.462Z,13.82
2022-10-19T17:23:17.447Z,13.82
2022-10-19T17:24:21.653Z,13.83
2022-10-19T17:25:17.429Z,13.86
2022-10-19T17:26:17.453Z,13.88
2022-10-19T17:27:17.434Z,13.90
2022-10-19T17:28:17.390Z,13.93
2022-10-19T17:29:17.399Z,13.94
2022-10-19T17:30:17.363Z,13.91
2022-10-19T17:31:17.370Z,13.90
2022-10-19T17:32:17.350Z,13.88
2022-10-19T17:33:17.321Z,13.86
2022-10-19T17:34:17.315Z,13.85
2022-10-19T17:35:17.302Z,13.83
2022-10-19T17:36:17.298Z,13.82
2022-10-19T17:37:17.297Z,13.79
2022-10-19T17:38:17.254Z,13.79
2022-10-19T17:39:17.246Z,13.76
2022-10-19T17:40:17.245Z,13.75
2022-10-19T17:41:17.236Z,13.73
2022-10-19T17:42:17.246Z,13.72
2022-10-19T17:43:17.212Z,13.73
2022-10-19T17:44:17.177Z,13.75
2022-10-19T17:45:17.186Z,13.76
2022-10-19T17:46:17.178Z,13.76
2022-10-19T17:47:17.152Z,13.79
2022-10-19T17:48:17.124Z,13.82
2022-10-19T17:49:17.110Z,13.83
2022-10-19T17:50:17.119Z,13.86
2022-10-19T17:51:17.101Z,13.85
2022-10-19T17:52:17.145Z,13.83
2022-10-19T17:53:17.050Z,13.82
2022-10-19T17:54:17.053Z,13.78
2022-10-19T17:55:17.108Z,13.75
2022-10-19T17:56:17.037Z,13.72
2022-10-19T17:57:17.044Z,13.68
2022-10-19T17:58:17.000Z,13.67
2022-10-19T17:59:17.297Z,13.65
2022-10-19T18:00:16.977Z,13.64
2022-10-19T18:01:16.981Z,13.65
2022-10-19T18:02:16.945Z,13.65
2022-10-19T18:03:17.071Z,13.67
2022-10-19T18:04:16.915Z,13.64
2022-10-19T18:05:16.916Z,13.64
2022-10-19T18:06:16.907Z,13.63
2022-10-19T18:07:16.874Z,13.61
2022-10-19T18:08:16.869Z,13.60
2022-10-19T18:09:16.850Z,13.63
2022-10-19T18:10:16.838Z,13.61
2022-10-19T18:11:16.832Z,13.64
2022-10-19T18:12:16.812Z,13.65
2022-10-19T18:13:16.837Z,13.68
2022-10-19T18:14:16.787Z,13.71
2022-10-19T18:15:16.767Z,13.72
2022-10-19T18:16:16.786Z,13.72
2022-10-19T18:17:16.751Z,13.68
2022-10-19T18:18:16.748Z,13.68
2022-10-19T18:19:16.728Z,13.71
2022-10-19T18:20:16.751Z,13.71
2022-10-19T18:21:16.716Z,13.65
2022-10-19T18:22:16.722Z,13.65
2022-10-19T18:23:16.664Z,13.65
2022-10-19T18:24:16.659Z,13.68
2022-10-19T18:25:25.977Z,13.67
2022-10-19T18:26:16.639Z,13.65
2022-10-19T18:27:16.617Z,13.64
2022-10-19T18:28:16.618Z,13.63
2022-10-19T18:29:16.591Z,13.60
2022-10-19T18:30:16.629Z,13.58
2022-10-19T18:31:16.563Z,13.57
2022-10-19T18:32:16.605Z,13.57
2022-10-19T18:33:16.536Z,13.54
2022-10-19T18:34:16.532Z,13.53
2022-10-19T18:35:16.528Z,13.51
2022-10-19T18:36:16.503Z,13.51
2022-10-19T18:37:16.486Z,13.53
2022-10-19T18:38:16.476Z,13.51
2022-10-19T18:39:16.476Z,13.49
2022-10-19T18:40:16.484Z,13.49
2022-10-19T18:41:16.435Z,13.47
2022-10-19T18:42:16.427Z,13.47
2022-10-19T18:43:16.508Z,13.46
2022-10-19T18:44:16.400Z,13.43
2022-10-19T18:45:16.389Z,13.42
2022-10-19T18:46:16.385Z,13.40
2022-10-19T18:47:16.384Z,13.39
2022-10-19T18:48:16.375Z,13.39
2022-10-19T18:49:16.330Z,13.35
2022-10-19T18:50:16.371Z,13.35
2022-10-19T18:51:16.332Z,13.38
2022-10-19T18:52:16.344Z,13.36
2022-10-19T18:53:16.274Z,13.32
2022-10-19T18:54:16.345Z,13.30
2022-10-19T18:55:16.267Z,13.29
2022-10-19T18:56:16.268Z,13.26
2022-10-19T18:57:16.226Z,13.26
2022-10-19T18:58:16.337Z,13.23
2022-10-19T18:59:16.267Z,13.21
2022-10-19T19:00:16.189Z,13.20
2022-10-19T19:01:16.259Z,13.19
2022-10-19T19:02:22.512Z,13.17
2022-10-19T19:03:16.157Z,13.17
2022-10-19T19:04:16.141Z,13.17
2022-10-19T19:05:16.124Z,13.16
2022-10-19T19:06:16.114Z,13.14
2022-10-19T19:07:16.095Z,13.13
2022-10-19T19:08:16.173Z,13.13
2022-10-19T19:09:16.065Z,13.11
2022-10-19T19:10:16.083Z,13.08
2022-10-19T19:11:16.055Z,13.08
2022-10-19T19:12:16.025Z,13.08
2022-10-19T19:13:16.027Z,13.09
2022-10-19T19:14:16.020Z,13.08
2022-10-19T19:15:15.985Z,13.06
2022-10-19T19:16:15.992Z,13.04
2022-10-19T19:17:15.973Z,13.04
2022-10-19T19:18:15.964Z,13.02
2022-10-19T19:19:15.958Z,13.01
2022-10-19T19:20:15.928Z,12.96
2022-10-19T19:21:15.917Z,12.96
2022-10-19T19:22:15.892Z,12.93
2022-10-19T19:23:15.906Z,12.93
2022-10-19T19:24:15.893Z,12.91
2022-10-19T19:25:15.867Z,12.91
2022-10-19T19:26:15.864Z,12.91
2022-10-19T19:27:15.840Z,12.88
2022-10-19T19:28:15.810Z,12.87
2022-10-19T19:29:15.844Z,12.84
2022-10-19T19:30:15.802Z,12.84
2022-10-19T19:31:15.836Z,12.84
2022-10-19T19:32:15.797Z,12.84
2022-10-19T19:33:15.753Z,12.83
2022-10-19T19:34:15.744Z,12.81
2022-10-19T19:35:15.723Z,12.79
2022-10-19T19:36:15.731Z,12.77
2022-10-19T19:37:15.700Z,12.76
2022-10-19T19:38:15.726Z,12.76
2022-10-19T19:39:15.665Z,12.76
2022-10-19T19:40:15.656Z,12.76
2022-10-19T19:41:15.661Z,12.73
2022-10-19T19:42:15.618Z,12.76
2022-10-19T19:43:15.642Z,12.77
2022-10-19T19:44:15.596Z,12.73
2022-10-19T19:45:15.629Z,12.72
2022-10-19T19:46:15.608Z,12.76
2022-10-19T19:47:15.572Z,12.76
2022-10-19T19:48:15.545Z,12.76
2022-10-19T19:49:15.527Z,12.73
2022-10-19T19:50:15.513Z,12.72
2022-10-19T19:51:15.523Z,12.71
2022-10-19T19:52:15.484Z,12.71
2022-10-19T19:53:15.484Z,12.69
2022-10-19T19:54:15.457Z,12.71
2022-10-19T19:55:15.481Z,12.69
2022-10-19T19:56:15.455Z,12.68
2022-10-19T19:57:15.443Z,12.65
2022-10-19T19:58:15.403Z,12.61
2022-10-19T19:59:15.398Z,12.59
2022-10-19T20:00:15.395Z,12.59
2022-10-19T20:01:15.479Z,12.58
2022-10-19T20:02:15.361Z,12.54
2022-10-19T20:03:15.353Z,12.53
2022-10-19T20:04:15.347Z,12.51
2022-10-19T20:05:15.323Z,12.51
2022-10-19T20:06:15.315Z,12.51
2022-10-19T20:07:15.303Z,12.51
2022-10-19T20:08:15.277Z,12.51
2022-10-19T20:09:15.271Z,12.51
2022-10-19T20:10:15.254Z,12.50
2022-10-19T20:11:15.279Z,12.47
2022-10-19T20:12:15.228Z,12.47
2022-10-19T20:13:15.219Z,12.46
2022-10-19T20:14:15.207Z,12.43
2022-10-19T20:15:15.189Z,12.46
2022-10-19T20:16:15.200Z,12.46
2022-10-19T20:17:15.169Z,12.44
2022-10-19T20:18:15.149Z,12.40
2022-10-19T20:19:15.138Z,12.40
2022-10-19T20:20:15.119Z,12.40
2022-10-19T20:21:15.198Z,12.43
2022-10-19T20:22:15.139Z,12.43
2022-10-19T20:23:15.086Z,12.41
2022-10-19T20:24:15.090Z,12.41
2022-10-19T20:25:15.099Z,12.40
2022-10-19T20:26:15.068Z,12.40
2022-10-19T20:27:15.034Z,12.36
2022-10-19T20:28:15.019Z,12.36
2022-10-19T20:29:15.037Z,12.33
2022-10-19T20:30:15.014Z,12.33
2022-10-19T20:31:15.037Z,12.33
2022-10-19T20:32:14.966Z,12.33
2022-10-19T20:33:14.977Z,12.30
2022-10-19T20:34:14.971Z,12.32
2022-10-19T20:35:14.974Z,12.30
2022-10-19T20:36:14.931Z,12.32
2022-10-19T20:37:14.927Z,12.29
2022-10-19T20:38:14.897Z,12.29
2022-10-19T20:39:14.884Z,12.28
2022-10-19T20:40:14.861Z,12.29
2022-10-19T20:41:14.869Z,12.30
2022-10-19T20:42:14.841Z,12.28
2022-10-19T20:43:14.826Z,12.26
2022-10-19T20:44:14.814Z,12.25
2022-10-19T20:45:14.804Z,12.25
2022-10-19T20:46:14.826Z,12.22
2022-10-19T20:47:14.776Z,12.21
2022-10-19T20:48:14.804Z,12.17
2022-10-19T20:49:14.753Z,12.15
2022-10-19T20:50:16.093Z,12.14
2022-10-19T20:51:14.744Z,12.13
2022-10-19T20:52:14.706Z,12.13
2022-10-19T20:53:14.700Z,12.14
2022-10-19T20:54:14.717Z,12.14
2022-10-19T20:55:14.676Z,12.14
2022-10-19T20:56:14.684Z,12.15
2022-10-19T20:57:14.645Z,12.14
2022-10-19T20:58:14.631Z,12.11
2022-10-19T20:59:14.626Z,12.13
2022-10-19T21:00:14.663Z,12.13
2022-10-19T21:01:14.694Z,12.13
2022-10-19T21:02:14.576Z,12.10
2022-10-19T21:03:14.583Z,12.10
2022-10-19T21:04:14.583Z,12.10
2022-10-19T21:05:14.542Z,12.05
2022-10-19T21:06:14.544Z,12.08
2022-10-19T21:07:14.545Z,12.04
2022-10-19T21:08:14.497Z,12.08
2022-10-19T21:09:14.587Z,12.05
2022-10-19T21:10:14.481Z,12.03
2022-10-19T21:11:14.486Z,12.03
2022-10-19T21:12:14.449Z,12.00
2022-10-19T21:13:14.449Z,12.03
2022-10-19T21:14:14.427Z,12.03
2022-10-19T21:15:14.410Z,12.00
2022-10-19T21:16:14.422Z,11.97
2022-10-19T21:17:14.388Z,11.97
2022-10-19T21:18:14.403Z,11.95
2022-10-19T21:19:14.368Z,11.93
2022-10-19T21:20:14.353Z,11.91
2022-10-19T21:21:14.353Z,11.91
2022-10-19T21:22:14.319Z,11.89
2022-10-19T21:23:14.311Z,11.91
2022-10-19T21:24:14.301Z,11.89
2022-10-19T21:25:14.283Z,11.88
2022-10-19T21:26:14.488Z,11.87
2022-10-19T21:27:14.268Z,11.88
2022-10-19T21:28:14.244Z,11.85
2022-10-19T21:29:14.235Z,11.84
2022-10-19T21:30:14.225Z,11.84
2022-10-19T21:31:14.223Z,11.84
2022-10-19T21:32:14.193Z,11.82
2022-10-19T21:33:14.185Z,11.80
2022-10-19T21:34:14.167Z,11.79
2022-10-19T21:35:14.159Z,11.77
2022-10-19T21:36:14.169Z,11.77
2022-10-19T21:37:14.134Z,11.76
2022-10-19T21:38:14.116Z,11.74
2022-10-19T21:39:14.122Z,11.74
2022-10-19T21:40:14.094Z,11.73
2022-10-19T21:41:14.102Z,11.73
2022-10-19T21:42:14.076Z,11.70
2022-10-19T21:43:14.080Z,11.71
2022-10-19T21:44:14.047Z,11.73
2022-10-19T21:45:30.615Z,11.73
2022-10-19T21:46:14.072Z,11.74
2022-10-19T21:47:14.006Z,11.73
2022-10-19T21:48:13.992Z,11.73
2022-10-19T21:49:13.996Z,11.74
2022-10-19T21:50:13.967Z,11.74
2022-10-19T21:51:13.974Z,11.76
2022-10-19T21:52:16.202Z,11.76
2022-10-19T21:53:13.936Z,11.77
2022-10-19T21:54:13.985Z,11.82
2022-10-19T21:55:13.915Z,11.85
2022-10-19T21:56:13.913Z,11.82
2022-10-19T21:57:13.898Z,11.82
2022-10-19T21:58:14.109Z,11.82
2022-10-19T21:59:13.859Z,11.82
2022-10-19T22:00:13.842Z,11.82
2022-10-19T22:01:14.017Z,11.82
2022-10-19T22:02:13.945Z,11.84
2022-10-19T22:04:12.798Z,11.87
2022-10-19T22:05:13.802Z,11.85
2022-10-19T22:06:13.779Z,11.85
2022-10-19T22:07:13.758Z,11.85
2022-10-19T22:08:13.744Z,11.87
2022-10-19T22:09:13.746Z,11.87
2022-10-19T22:10:13.716Z,11.89
2022-10-19T22:11:13.725Z,11.89
2022-10-19T22:13:12.673Z,11.91
2022-10-19T22:14:13.669Z,11.91
2022-10-19T22:15:13.669Z,11.91
2022-10-19T22:16:13.655Z,11.88
2022-10-19T22:17:13.632Z,11.87
2022-10-19T22:18:13.630Z,11.87
2022-10-19T22:19:13.630Z,11.87
2022-10-19T22:20:13.591Z,11.84
2022-10-19T22:21:13.597Z,11.84
2022-10-19T22:22:13.567Z,11.82
2022-10-19T22:23:13.554Z,11.82
2022-10-19T22:24:13.536Z,11.82
2022-10-19T22:25:13.537Z,11.82
2022-10-19T22:26:13.529Z,11.82
2022-10-19T22:27:13.505Z,11.80
2022-10-19T22:28:13.521Z,11.82
2022-10-19T22:29:13.484Z,11.85
2022-10-19T22:30:13.464Z,11.82
2022-10-19T22:31:13.470Z,11.79
2022-10-19T22:32:13.440Z,11.77
2022-10-19T22:33:13.432Z,11.77
2022-10-19T22:34:13.442Z,11.77
2022-10-19T22:35:13.402Z,11.77
2022-10-19T22:36:13.407Z,11.77
2022-10-19T22:37:13.410Z,11.79
2022-10-19T22:38:13.388Z,11.80
2022-10-19T22:39:13.351Z,11.80
2022-10-19T22:40:13.364Z,11.79
2022-10-19T22:41:13.341Z,11.76
2022-10-19T22:42:13.306Z,11.76
2022-10-19T22:43:13.322Z,11.71
2022-10-19T22:44:13.294Z,11.73
2022-10-19T22:45:13.277Z,11.74
2022-10-19T22:46:13.269Z,11.70
2022-10-19T22:47:13.251Z,11.70
2022-10-19T22:48:13.234Z,11.70
2022-10-19T22:49:13.240Z,11.70
2022-10-19T22:50:13.213Z,11.69
2022-10-19T22:51:13.213Z,11.66
2022-10-19T22:52:13.182Z,11.67
2022-10-19T22:53:13.214Z,11.62
2022-10-19T22:54:13.155Z,11.62
2022-10-19T22:55:13.153Z,11.61
2022-10-19T22:56:13.153Z,11.61
2022-10-19T22:57:13.155Z,11.59
2022-10-19T22:58:13.115Z,11.56
2022-10-19T22:59:13.094Z,11.56
2022-10-19T23:00:13.108Z,11.55
2022-10-19T23:01:13.136Z,11.54
2022-10-19T23:02:13.079Z,11.52
2022-10-19T23:03:13.077Z,11.51
2022-10-19T23:04:13.057Z,11.52
2022-10-19T23:05:13.026Z,11.54
2022-10-19T23:06:13.035Z,11.52
2022-10-19T23:07:13.024Z,11.55
2022-10-19T23:08:13.002Z,11.54
2022-10-19T23:09:12.972Z,11.55
2022-10-19T23:10:13.000Z,11.54
2022-10-19T23:11:12.959Z,11.55
2022-10-19T23:12:12.939Z,11.56
2022-10-19T23:13:12.926Z,11.58
2022-10-19T23:14:12.902Z,11.56
2022-10-19T23:15:12.898Z,11.56
2022-10-19T23:16:12.876Z,11.58
2022-10-19T23:17:12.879Z,11.58
2022-10-19T23:18:12.863Z,11.59
2022-10-19T23:19:12.838Z,11.59
2022-10-19T23:20:12.829Z,11.61
2022-10-19T23:21:12.841Z,11.61
2022-10-19T23:22:12.828Z,11.61
2022-10-19T23:23:12.786Z,11.64
2022-10-19T23:24:12.777Z,11.64
2022-10-19T23:25:12.768Z,11.69
2022-10-19T23:26:12.767Z,11.69
2022-10-19T23:27:12.758Z,11.71
2022-10-19T23:28:12.731Z,11.71
2022-10-19T23:29:12.714Z,11.71
2022-10-19T23:30:12.710Z,11.71
2022-10-19T23:31:12.701Z,11.71
2022-10-19T23:32:12.700Z,11.73
2022-10-19T23:33:12.671Z,11.73
2022-10-19T23:34:12.650Z,11.74
2022-10-19T23:35:12.643Z,11.76
2022-10-19T23:36:12.626Z,11.77
2022-10-19T23:37:12.645Z,11.77
2022-10-19T23:38:12.601Z,11.77
2022-10-19T23:39:12.589Z,11.76
2022-10-19T23:40:12.591Z,11.79
2022-10-19T23:41:12.569Z,11.80
2022-10-19T23:42:12.572Z,11.80
2022-10-19T23:43:12.537Z,11.84
2022-10-19T23:44:12.552Z,11.87
2022-10-19T23:45:12.512Z,11.88
2022-10-19T23:46:12.503Z,11.89
2022-10-19T23:47:12.506Z,11.89
2022-10-19T23:48:12.484Z,11.91
2022-10-19T23:49:12.460Z,11.91
2022-10-19T23:50:12.459Z,11.89
2022-10-19T23:51:12.454Z,11.88
2022-10-19T23:52:12.439Z,11.87
2022-10-19T23:53:12.435Z,11.85
2022-10-19T23:54:12.408Z,11.84
2022-10-19T23:55:12.385Z,11.82
2022-10-19T23:56:12.385Z,11.80
2022-10-19T23:57:12.390Z,11.84
2022-10-19T23:58:12.352Z,11.84
2022-10-19T23:59:12.361Z,11.80
